createdAt,value
2018-12-30T00:00:03.169Z,39.6
2018-12-30T00:00:52.601Z,39.6
2018-12-30T00:01:43.299Z,39.6
2018-12-30T00:02:35.205Z,39.6
2018-12-30T00:03:26.386Z,39.6
2018-12-30T00:04:15.158Z,39.6
2018-12-30T00:05:05.939Z,39.6
2018-12-30T00:05:56.009Z,39.6
2018-12-30T00:06:47.369Z,39.6
2018-12-30T00:07:32.736Z,39.5
2018-12-30T00:08:22.604Z,39.5
2018-12-30T00:09:14.526Z,39.5
2018-12-30T00:10:03.054Z,39.5
2018-12-30T00:10:52.746Z,39.5
2018-12-30T00:11:42.557Z,39.4
2018-12-30T00:12:33.385Z,39.4
2018-12-30T00:13:22.969Z,39.4
2018-12-30T00:14:14.073Z,39.4
2018-12-30T00:15:05.533Z,39.4
2018-12-30T00:33:10.320Z,39.1
2018-12-30T00:34:00.404Z,39.1
2018-12-30T00:34:51.027Z,39.1
2018-12-30T00:35:42.167Z,39.1
2018-12-30T00:36:30.514Z,39.1
2018-12-30T00:37:19.829Z,39.1
2018-12-30T00:38:11.159Z,39
2018-12-30T00:39:02.209Z,39
2018-12-30T00:39:50.982Z,39
2018-12-30T00:40:41.312Z,39
2018-12-30T00:41:31.457Z,39
2018-12-30T00:42:20.644Z,38.9
2018-12-30T00:43:12.006Z,38.9
2018-12-30T00:43:59.882Z,38.9
2018-12-30T00:44:51.879Z,38.9
2018-12-30T00:45:41.644Z,38.9
2018-12-30T00:46:30.619Z,38.9
2018-12-30T00:47:20.491Z,38.9
2018-12-30T00:48:14.351Z,38.9
2018-12-30T00:49:00.543Z,38.9
2018-12-30T00:49:50.808Z,38.8
2018-12-30T00:50:41.968Z,38.8
2018-12-30T00:51:31.833Z,38.8
2018-12-30T00:52:21.877Z,38.8
2018-12-30T00:53:11.116Z,38.8
2018-12-30T00:54:02.351Z,38.8
2018-12-30T00:54:51.781Z,38.8
2018-12-30T00:55:41.521Z,38.8
2018-12-30T00:56:32.360Z,38.8
2018-12-30T00:57:22.061Z,38.8
2018-12-30T00:58:11.652Z,38.8
2018-12-30T00:59:02.553Z,38.7
2018-12-30T00:59:52.431Z,38.7
2018-12-30T01:00:43.896Z,38.7
2018-12-30T01:01:32.464Z,38.7
2018-12-30T01:02:22.581Z,38.6
2018-12-30T01:03:12.290Z,38.6
2018-12-30T01:04:03.063Z,38.6
2018-12-30T01:04:52.425Z,38.6
2018-12-30T01:05:42.530Z,38.6
2018-12-30T01:06:33.410Z,38.6
2018-12-30T01:07:22.925Z,38.6
2018-12-30T01:08:12.928Z,38.6
2018-12-30T01:09:02.822Z,38.5
2018-12-30T01:09:53.839Z,38.5
2018-12-30T01:10:43.140Z,38.5
2018-12-30T01:11:32.875Z,38.5
2018-12-30T01:12:23.575Z,38.5
2018-12-30T01:13:15.265Z,38.5
2018-12-30T01:14:02.797Z,38.5
2018-12-30T01:14:53.470Z,38.4
2018-12-30T01:15:43.779Z,38.4
2018-12-30T01:16:33.437Z,38.4
2018-12-30T01:17:22.765Z,38.4
2018-12-30T01:18:13.614Z,38.4
2018-12-30T01:19:03.469Z,38.4
2018-12-30T01:19:53.814Z,38.4
2018-12-30T01:20:43.535Z,38.4
2018-12-30T01:21:33.954Z,38.4
2018-12-30T01:22:37.547Z,38.4
2018-12-30T01:23:13.500Z,38.4
2018-12-30T01:24:04.014Z,38.3
2018-12-30T01:24:54.086Z,38.3
2018-12-30T01:25:46.914Z,38.3
2018-12-30T01:26:34.161Z,38.3
2018-12-30T01:27:23.733Z,38.3
2018-12-30T01:28:14.331Z,38.3
2018-12-30T01:29:04.773Z,38.3
2018-12-30T01:29:54.125Z,38.3
2018-12-30T01:30:44.493Z,38.3
2018-12-30T01:31:34.268Z,38.3
2018-12-30T01:32:24.348Z,38.2
2018-12-30T01:33:12.530Z,38.2
2018-12-30T01:34:04.438Z,38.2
2018-12-30T01:34:55.278Z,38.2
2018-12-30T01:35:45.108Z,38.2
2018-12-30T01:36:34.335Z,38.2
2018-12-30T01:37:24.647Z,38.1
2018-12-30T01:38:15.080Z,38.1
2018-12-30T01:39:04.802Z,38.1
2018-12-30T01:39:55.635Z,38.1
2018-12-30T01:40:44.875Z,38.1
2018-12-30T01:41:37.759Z,38.1
2018-12-30T01:42:24.749Z,38.1
2018-12-30T01:43:15.342Z,38.1
2018-12-30T01:44:05.252Z,38.1
2018-12-30T01:44:55.537Z,38.1
2018-12-30T01:45:45.762Z,38.1
2018-12-30T01:46:36.345Z,38
2018-12-30T01:47:25.062Z,38
2018-12-30T01:48:14.835Z,38
2018-12-30T01:49:05.737Z,38
2018-12-30T01:49:56.034Z,38
2018-12-30T01:50:46.112Z,37.9
2018-12-30T01:51:38.656Z,37.9
2018-12-30T01:52:25.992Z,37.9
2018-12-30T01:53:16.039Z,37.9
2018-12-30T01:54:08.057Z,37.9
2018-12-30T01:54:56.161Z,37.9
2018-12-30T01:55:46.016Z,37.9
2018-12-30T01:56:35.948Z,37.9
2018-12-30T01:57:27.718Z,37.9
2018-12-30T01:58:16.134Z,37.9
2018-12-30T01:59:06.146Z,37.9
2018-12-30T01:59:57.016Z,38.2
2018-12-30T02:00:46.332Z,38.5
2018-12-30T02:01:36.356Z,38.9
2018-12-30T02:02:26.376Z,39.3
2018-12-30T02:03:17.008Z,39.6
2018-12-30T02:04:06.179Z,39.9
2018-12-30T02:04:56.583Z,40.1
2018-12-30T02:05:46.848Z,40.4
2018-12-30T02:06:37.473Z,40.7
2018-12-30T02:07:26.358Z,40.9
2018-12-30T02:08:16.991Z,41.1
2018-12-30T02:09:06.773Z,41.3
2018-12-30T02:09:58.743Z,41.4
2018-12-30T02:10:46.331Z,41.6
2018-12-30T02:11:37.555Z,41.7
2018-12-30T02:12:27.304Z,41.8
2018-12-30T02:13:18.852Z,41.9
2018-12-30T02:14:06.553Z,42
2018-12-30T02:14:57.452Z,42.1
2018-12-30T02:15:47.812Z,42.3
2018-12-30T02:16:37.067Z,42.4
2018-12-30T02:17:27.294Z,42.6
2018-12-30T02:18:17.981Z,42.7
2018-12-30T02:19:07.520Z,42.8
2018-12-30T02:19:57.616Z,42.9
2018-12-30T02:20:48.167Z,43
2018-12-30T02:21:45.624Z,43.1
2018-12-30T02:22:27.102Z,43.3
2018-12-30T02:23:17.485Z,43.3
2018-12-30T02:24:08.120Z,43.4
2018-12-30T02:24:58.401Z,43.5
2018-12-30T02:25:48.555Z,43.6
2018-12-30T02:26:37.712Z,43.8
2018-12-30T02:27:28.623Z,43.8
2018-12-30T02:28:18.627Z,43.9
2018-12-30T02:29:09.351Z,44.1
2018-12-30T02:29:58.494Z,44.2
2018-12-30T02:30:48.570Z,44.3
2018-12-30T02:31:38.664Z,44.4
2018-12-30T02:32:30.591Z,44.5
2018-12-30T02:33:18.954Z,44.6
2018-12-30T02:34:08.638Z,44.7
2018-12-30T02:34:59.209Z,44.8
2018-12-30T02:35:49.130Z,44.9
2018-12-30T02:36:38.995Z,45
2018-12-30T02:37:28.818Z,45.1
2018-12-30T02:38:18.506Z,45.1
2018-12-30T02:39:08.698Z,45.1
2018-12-30T02:39:59.209Z,45.2
2018-12-30T02:40:49.023Z,45.2
2018-12-30T02:41:38.763Z,45.2
2018-12-30T02:42:27.996Z,45.3
2018-12-30T02:43:19.931Z,45.3
2018-12-30T02:44:09.393Z,45.4
2018-12-30T02:44:59.941Z,45.5
2018-12-30T02:45:49.801Z,45.6
2018-12-30T02:46:39.964Z,45.6
2018-12-30T02:47:29.971Z,45.6
2018-12-30T02:48:20.786Z,45.6
2018-12-30T02:49:09.946Z,45.7
2018-12-30T02:49:59.321Z,45.7
2018-12-30T02:50:49.412Z,45.8
2018-12-30T02:51:51.258Z,45.8
2018-12-30T02:52:29.746Z,45.8
2018-12-30T02:53:20.091Z,45.8
2018-12-30T02:54:10.158Z,45.9
2018-12-30T02:55:02.488Z,45.9
2018-12-30T02:55:50.028Z,45.9
2018-12-30T02:56:40.645Z,45.9
2018-12-30T02:57:30.160Z,45.9
2018-12-30T02:58:20.403Z,46
2018-12-30T02:59:09.480Z,46.1
2018-12-30T03:00:00.860Z,46.2
2018-12-30T03:00:50.283Z,46.3
2018-12-30T03:01:41.285Z,46.3
2018-12-30T03:02:31.285Z,46.3
2018-12-30T03:03:20.881Z,46.3
2018-12-30T03:04:10.317Z,46.3
2018-12-30T03:05:01.426Z,46.4
2018-12-30T03:05:50.892Z,46.4
2018-12-30T03:06:40.785Z,46.4
2018-12-30T03:07:31.019Z,46.4
2018-12-30T03:08:20.277Z,46.4
2018-12-30T03:09:10.672Z,46.4
2018-12-30T03:10:01.250Z,46.5
2018-12-30T03:10:51.807Z,46.5
2018-12-30T03:11:41.320Z,46.5
2018-12-30T03:12:31.992Z,46.6
2018-12-30T03:13:21.244Z,46.6
2018-12-30T03:14:11.526Z,46.6
2018-12-30T03:15:00.476Z,46.6
2018-12-30T03:15:51.319Z,46.7
2018-12-30T03:16:41.614Z,46.7
2018-12-30T03:17:33.499Z,46.8
2018-12-30T03:18:21.056Z,46.8
2018-12-30T03:19:11.084Z,46.8
2018-12-30T03:20:01.900Z,46.8
2018-12-30T03:20:53.599Z,46.8
2018-12-30T03:21:42.034Z,46.8
2018-12-30T03:22:32.044Z,46.8
2018-12-30T03:23:21.787Z,46.8
2018-12-30T03:24:11.575Z,46.9
2018-12-30T03:25:02.505Z,46.9
2018-12-30T03:25:52.533Z,46.9
2018-12-30T03:26:42.674Z,46.9
2018-12-30T03:27:32.416Z,46.9
2018-12-30T03:28:21.587Z,46.9
2018-12-30T03:29:12.194Z,46.9
2018-12-30T03:30:03.002Z,47
2018-12-30T03:30:52.197Z,46.9
2018-12-30T03:31:42.504Z,46.9
2018-12-30T03:32:32.876Z,46.9
2018-12-30T03:33:23.088Z,46.9
2018-12-30T03:34:12.890Z,46.9
2018-12-30T03:35:02.998Z,46.9
2018-12-30T03:35:52.746Z,46.9
2018-12-30T03:36:43.271Z,46.9
2018-12-30T03:37:32.533Z,46.9
2018-12-30T03:38:22.806Z,46.9
2018-12-30T03:39:13.018Z,46.9
2018-12-30T03:40:03.594Z,46.9
2018-12-30T03:40:53.295Z,46.9
2018-12-30T03:41:43.315Z,46.9
2018-12-30T03:42:33.469Z,46.9
2018-12-30T03:43:23.460Z,46.9
2018-12-30T03:44:13.012Z,46.9
2018-12-30T03:45:02.974Z,46.9
2018-12-30T03:45:52.824Z,46.8
2018-12-30T03:46:42.590Z,46.9
2018-12-30T03:47:33.224Z,46.8
2018-12-30T03:48:24.063Z,46.9
2018-12-30T03:49:13.349Z,46.9
2018-12-30T03:50:03.839Z,46.9
2018-12-30T03:50:53.787Z,46.8
2018-12-30T03:51:43.735Z,46.8
2018-12-30T03:52:34.402Z,46.9
2018-12-30T03:53:24.173Z,46.9
2018-12-30T03:54:14.246Z,46.9
2018-12-30T03:55:04.606Z,46.9
2018-12-30T03:55:54.307Z,46.9
2018-12-30T03:56:44.658Z,46.9
2018-12-30T03:57:34.146Z,46.9
2018-12-30T03:58:23.950Z,46.8
2018-12-30T03:59:13.461Z,46.9
2018-12-30T04:00:03.887Z,46.8
2018-12-30T04:00:54.639Z,46.8
2018-12-30T04:01:44.419Z,46.8
2018-12-30T04:02:34.812Z,46.8
2018-12-30T04:03:24.853Z,46.8
2018-12-30T04:04:14.864Z,46.8
2018-12-30T04:05:04.971Z,46.8
2018-12-30T04:05:54.524Z,46.8
2018-12-30T04:06:44.782Z,46.8
2018-12-30T04:07:34.584Z,46.8
2018-12-30T04:08:24.351Z,46.8
2018-12-30T04:09:15.094Z,46.8
2018-12-30T04:10:05.530Z,46.8
2018-12-30T04:10:55.354Z,46.8
2018-12-30T04:11:45.127Z,46.8
2018-12-30T04:12:34.329Z,46.7
2018-12-30T04:13:25.716Z,46.7
2018-12-30T04:14:15.574Z,46.7
2018-12-30T04:15:05.874Z,46.7
2018-12-30T04:15:54.886Z,46.6
2018-12-30T04:16:45.225Z,46.7
2018-12-30T04:17:35.652Z,46.6
2018-12-30T04:18:26.161Z,46.6
2018-12-30T04:19:15.897Z,46.6
2018-12-30T04:20:05.936Z,46.6
2018-12-30T04:20:55.484Z,46.6
2018-12-30T04:21:46.082Z,46.6
2018-12-30T04:22:37.624Z,46.6
2018-12-30T04:23:26.172Z,46.6
2018-12-30T04:24:16.000Z,46.6
2018-12-30T04:25:06.596Z,46.6
2018-12-30T04:25:57.018Z,46.6
2018-12-30T04:26:46.149Z,46.6
2018-12-30T04:27:35.908Z,46.6
2018-12-30T04:28:25.993Z,46.6
2018-12-30T04:29:16.587Z,46.6
2018-12-30T04:30:06.118Z,46.6
2018-12-30T04:30:56.263Z,46.6
2018-12-30T04:31:46.797Z,46.6
2018-12-30T04:32:36.830Z,46.6
2018-12-30T04:33:26.051Z,46.6
2018-12-30T04:34:17.259Z,46.6
2018-12-30T04:35:06.763Z,46.6
2018-12-30T04:35:57.073Z,46.6
2018-12-30T04:36:46.803Z,46.6
2018-12-30T04:37:37.187Z,46.6
2018-12-30T04:38:27.275Z,46.5
2018-12-30T04:39:17.332Z,46.5
2018-12-30T04:40:07.597Z,46.5
2018-12-30T04:40:57.710Z,46.5
2018-12-30T04:41:47.460Z,46.5
2018-12-30T04:42:37.604Z,46.5
2018-12-30T04:43:27.684Z,46.4
2018-12-30T04:44:17.657Z,46.4
2018-12-30T04:45:07.450Z,46.4
2018-12-30T05:02:29.859Z,46.3
2018-12-30T05:03:20.188Z,46.3
2018-12-30T05:04:10.748Z,46.3
2018-12-30T05:05:00.256Z,46.3
2018-12-30T05:05:50.481Z,46.2
2018-12-30T05:06:40.363Z,46.2
2018-12-30T05:07:30.993Z,46.2
2018-12-30T05:08:20.750Z,46.2
2018-12-30T05:09:10.533Z,46.1
2018-12-30T05:10:01.181Z,46.1
2018-12-30T05:10:50.911Z,46.1
2018-12-30T05:11:40.701Z,46.1
2018-12-30T05:12:31.440Z,46.1
2018-12-30T05:13:20.551Z,46.1
2018-12-30T05:14:10.451Z,46.1
2018-12-30T05:15:00.941Z,46.1
2018-12-30T05:15:50.443Z,46.1
2018-12-30T05:16:41.598Z,46.1
2018-12-30T05:17:31.600Z,46
2018-12-30T05:18:20.976Z,46
2018-12-30T05:19:10.933Z,46
2018-12-30T05:20:00.735Z,46
2018-12-30T05:20:50.821Z,46
2018-12-30T05:21:41.377Z,45.9
2018-12-30T05:22:38.838Z,45.9
2018-12-30T05:23:21.310Z,45.9
2018-12-30T05:24:12.082Z,45.9
2018-12-30T05:25:01.883Z,45.9
2018-12-30T05:25:51.936Z,45.9
2018-12-30T05:26:41.735Z,45.9
2018-12-30T05:27:31.510Z,45.9
2018-12-30T05:28:22.345Z,45.9
2018-12-30T05:29:11.890Z,45.8
2018-12-30T05:30:02.129Z,45.8
2018-12-30T05:30:51.748Z,45.8
2018-12-30T05:31:41.029Z,45.8
2018-12-30T05:32:32.107Z,45.8
2018-12-30T05:33:22.981Z,45.8
2018-12-30T05:34:12.524Z,45.8
2018-12-30T05:35:02.325Z,45.8
2018-12-30T05:35:54.186Z,45.7
2018-12-30T05:36:41.860Z,45.7
2018-12-30T05:37:32.576Z,45.7
2018-12-30T05:38:23.151Z,45.7
2018-12-30T05:39:12.874Z,45.8
2018-12-30T05:40:03.280Z,45.7
2018-12-30T05:40:53.262Z,45.7
2018-12-30T05:41:41.957Z,45.7
2018-12-30T05:42:32.527Z,45.7
2018-12-30T05:43:22.589Z,45.7
2018-12-30T05:44:13.256Z,45.7
2018-12-30T05:45:02.587Z,45.7
2018-12-30T05:45:53.643Z,45.7
2018-12-30T05:46:43.088Z,45.6
2018-12-30T05:47:32.891Z,45.6
2018-12-30T05:48:23.768Z,45.6
2018-12-30T05:49:12.156Z,45.6
2018-12-30T05:50:04.026Z,45.6
2018-12-30T05:50:53.185Z,45.6
2018-12-30T05:51:43.166Z,45.6
2018-12-30T05:52:33.217Z,45.6
2018-12-30T05:53:24.050Z,45.6
2018-12-30T05:54:13.968Z,45.6
2018-12-30T05:55:04.532Z,45.6
2018-12-30T05:55:53.731Z,45.6
2018-12-30T05:56:43.496Z,45.6
2018-12-30T05:57:33.820Z,45.6
2018-12-30T05:58:23.890Z,45.5
2018-12-30T05:59:13.933Z,45.5
2018-12-30T06:00:03.703Z,45.5
2018-12-30T06:00:53.787Z,45.4
2018-12-30T06:01:43.569Z,45.4
2018-12-30T06:02:33.922Z,45.4
2018-12-30T06:03:23.750Z,45.4
2018-12-30T06:04:14.533Z,45.4
2018-12-30T06:05:05.204Z,45.4
2018-12-30T06:05:54.977Z,45.4
2018-12-30T06:06:44.994Z,45.4
2018-12-30T06:07:34.806Z,45.3
2018-12-30T06:08:24.872Z,45.3
2018-12-30T06:09:14.912Z,45.3
2018-12-30T06:10:04.837Z,45.3
2018-12-30T06:10:54.524Z,45.3
2018-12-30T06:11:44.521Z,45.3
2018-12-30T06:12:35.129Z,45.3
2018-12-30T06:13:25.483Z,45.3
2018-12-30T06:14:15.294Z,45.3
2018-12-30T06:15:05.093Z,45.3
2018-12-30T06:15:55.613Z,45.2
2018-12-30T06:16:45.406Z,45.2
2018-12-30T06:17:34.913Z,45.1
2018-12-30T06:18:24.686Z,45.1
2018-12-30T06:19:15.008Z,45.1
2018-12-30T06:20:05.901Z,45
2018-12-30T06:20:55.486Z,44.9
2018-12-30T06:21:46.038Z,44.9
2018-12-30T06:22:35.541Z,44.9
2018-12-30T06:23:25.860Z,44.9
2018-12-30T06:24:16.175Z,44.9
2018-12-30T06:25:05.808Z,44.9
2018-12-30T06:25:56.380Z,44.8
2018-12-30T06:26:46.477Z,44.8
2018-12-30T06:27:35.870Z,44.8
2018-12-30T06:28:25.649Z,44.8
2018-12-30T06:29:16.260Z,44.7
2018-12-30T06:30:06.340Z,44.7
2018-12-30T06:30:56.350Z,44.6
2018-12-30T06:31:45.607Z,44.6
2018-12-30T06:32:35.940Z,44.5
2018-12-30T06:33:26.625Z,44.4
2018-12-30T06:34:16.357Z,44.4
2018-12-30T06:35:06.514Z,44.3
2018-12-30T06:35:55.885Z,44.3
2018-12-30T06:36:46.538Z,44.2
2018-12-30T06:37:37.114Z,44.2
2018-12-30T06:38:26.394Z,44.1
2018-12-30T06:39:16.724Z,44.1
2018-12-30T06:40:14.557Z,44.1
2018-12-30T06:40:56.264Z,44
2018-12-30T06:41:47.190Z,43.9
2018-12-30T06:42:37.159Z,43.9
2018-12-30T06:43:27.217Z,43.9
2018-12-30T06:44:17.647Z,43.9
2018-12-30T06:45:07.353Z,43.8
2018-12-30T06:45:57.494Z,43.8
2018-12-30T06:46:47.171Z,43.8
2018-12-30T06:47:37.256Z,43.8
2018-12-30T06:48:26.466Z,43.7
2018-12-30T06:49:17.384Z,43.6
2018-12-30T06:50:08.001Z,43.6
2018-12-30T06:50:57.764Z,43.6
2018-12-30T06:51:47.486Z,43.6
2018-12-30T06:52:37.649Z,43.5
2018-12-30T06:53:27.653Z,43.5
2018-12-30T06:54:18.346Z,43.4
2018-12-30T06:55:07.791Z,43.4
2018-12-30T06:55:57.813Z,43.4
2018-12-30T06:56:47.333Z,43.3
2018-12-30T06:57:38.193Z,43.3
2018-12-30T06:58:26.913Z,43.2
2018-12-30T06:59:17.753Z,43.1
2018-12-30T07:00:07.828Z,43.1
2018-12-30T07:00:58.411Z,43
2018-12-30T07:01:48.731Z,42.9
2018-12-30T07:02:38.803Z,42.9
2018-12-30T07:03:28.053Z,42.9
2018-12-30T07:04:17.925Z,42.8
2018-12-30T07:05:08.440Z,42.8
2018-12-30T07:05:59.045Z,42.8
2018-12-30T07:06:48.586Z,42.7
2018-12-30T07:07:38.606Z,42.7
2018-12-30T07:08:28.407Z,42.6
2018-12-30T07:09:18.730Z,42.5
2018-12-30T07:10:09.063Z,42.4
2018-12-30T07:10:59.422Z,42.3
2018-12-30T07:11:49.667Z,42.2
2018-12-30T07:12:38.960Z,42.1
2018-12-30T07:13:28.973Z,42.1
2018-12-30T07:14:19.346Z,41.9
2018-12-30T07:15:08.565Z,41.9
2018-12-30T07:15:59.959Z,41.8
2018-12-30T07:16:49.815Z,41.8
2018-12-30T07:17:39.557Z,41.7
2018-12-30T07:18:29.976Z,41.6
2018-12-30T07:19:18.857Z,41.6
2018-12-30T07:20:09.478Z,41.6
2018-12-30T07:20:59.520Z,41.5
2018-12-30T07:21:50.124Z,41.4
2018-12-30T07:22:40.197Z,41.4
2018-12-30T07:23:29.969Z,41.3
2018-12-30T07:24:20.021Z,41.3
2018-12-30T07:25:10.057Z,41.1
2018-12-30T07:26:00.386Z,41
2018-12-30T07:26:49.361Z,40.9
2018-12-30T07:27:40.297Z,40.7
2018-12-30T07:28:29.736Z,40.5
2018-12-30T07:29:20.086Z,40.3
2018-12-30T07:30:10.125Z,39.9
2018-12-30T07:31:00.711Z,39.6
2018-12-30T07:31:49.991Z,39.3
2018-12-30T07:32:40.084Z,39
2018-12-30T07:33:29.544Z,38.7
2018-12-30T07:34:20.416Z,38.4
2018-12-30T07:35:10.471Z,38.1
2018-12-30T07:36:01.109Z,37.8
2018-12-30T07:36:50.316Z,37.4
2018-12-30T07:37:40.904Z,37.2
2018-12-30T07:38:30.811Z,36.9
2018-12-30T07:39:21.046Z,36.5
2018-12-30T07:40:10.556Z,36.3
2018-12-30T07:41:00.854Z,36.1
2018-12-30T07:41:51.176Z,35.9
2018-12-30T07:42:41.503Z,35.8
2018-12-30T07:43:31.616Z,35.6
2018-12-30T07:44:21.479Z,35.6
2018-12-30T07:45:10.917Z,35.4
2018-12-30T07:46:00.760Z,35.4
2018-12-30T07:46:51.556Z,35.3
2018-12-30T07:47:41.039Z,35.3
2018-12-30T07:48:31.121Z,35.2
2018-12-30T07:49:21.174Z,35.2
2018-12-30T07:50:11.247Z,35.1
2018-12-30T07:51:01.012Z,35.1
2018-12-30T07:51:51.677Z,34.9
2018-12-30T07:52:41.976Z,34.7
2018-12-30T07:53:32.289Z,34.4
2018-12-30T07:54:21.359Z,34.3
2018-12-30T07:55:12.201Z,34.1
2018-12-30T07:56:01.357Z,33.9
2018-12-30T07:56:51.676Z,33.8
2018-12-30T07:57:42.259Z,33.7
2018-12-30T07:58:32.104Z,33.6
2018-12-30T07:59:22.209Z,33.5
2018-12-30T08:00:12.474Z,33.4
2018-12-30T08:01:02.551Z,33.3
2018-12-30T08:01:52.853Z,33.3
2018-12-30T08:02:42.598Z,33.2
2018-12-30T08:03:32.648Z,33.1
2018-12-30T08:04:22.756Z,33
2018-12-30T08:05:12.819Z,32.9
2018-12-30T08:06:02.891Z,32.8
2018-12-30T08:06:52.929Z,32.7
2018-12-30T08:07:42.440Z,32.6
2018-12-30T08:08:32.791Z,32.4
2018-12-30T08:09:22.276Z,32.3
2018-12-30T08:10:12.608Z,32.1
2018-12-30T08:11:02.537Z,32
2018-12-30T08:11:52.996Z,31.9
2018-12-30T08:12:43.336Z,31.8
2018-12-30T08:13:33.178Z,31.8
2018-12-30T08:14:22.878Z,31.7
2018-12-30T08:15:13.210Z,31.6
2018-12-30T08:16:03.292Z,31.6
2018-12-30T08:16:53.876Z,31.5
2018-12-30T08:17:43.660Z,31.5
2018-12-30T08:18:33.513Z,31.4
2018-12-30T08:19:23.245Z,31.4
2018-12-30T08:20:12.998Z,31.3
2018-12-30T08:21:03.890Z,31.3
2018-12-30T08:21:53.932Z,31.3
2018-12-30T08:22:43.742Z,31.3
2018-12-30T08:23:32.947Z,31.2
2018-12-30T08:24:23.893Z,31.1
2018-12-30T08:25:13.887Z,30.9
2018-12-30T08:26:03.947Z,30.8
2018-12-30T08:26:54.608Z,30.6
2018-12-30T08:27:44.702Z,30.5
2018-12-30T08:28:34.910Z,30.4
2018-12-30T08:29:24.155Z,30.3
2018-12-30T08:30:14.251Z,30.2
2018-12-30T08:31:03.185Z,30.1
2018-12-30T08:31:54.995Z,30.1
2018-12-30T08:32:43.823Z,30
2018-12-30T08:33:34.432Z,30
2018-12-30T08:34:24.806Z,29.9
2018-12-30T08:35:14.589Z,29.9
2018-12-30T08:36:04.347Z,29.8
2018-12-30T08:36:53.869Z,29.8
2018-12-30T08:37:45.305Z,29.8
2018-12-30T08:38:35.332Z,29.8
2018-12-30T08:39:24.299Z,29.8
2018-12-30T08:40:14.921Z,29.7
2018-12-30T08:41:06.212Z,29.6
2018-12-30T08:41:54.777Z,29.6
2018-12-30T08:42:44.799Z,29.4
2018-12-30T08:43:34.936Z,29.4
2018-12-30T08:44:25.767Z,29.3
2018-12-30T08:45:16.927Z,29.3
2018-12-30T08:46:05.367Z,29.2
2018-12-30T08:46:56.862Z,29.1
2018-12-30T08:47:45.419Z,29.1
2018-12-30T08:48:36.041Z,29.1
2018-12-30T08:49:25.281Z,29.1
2018-12-30T08:50:16.142Z,29.1
2018-12-30T08:51:05.936Z,29
2018-12-30T08:51:55.774Z,29
2018-12-30T08:52:46.576Z,29
2018-12-30T08:53:36.157Z,29
2018-12-30T08:54:26.289Z,29
2018-12-30T08:55:15.932Z,28.9
2018-12-30T08:56:05.479Z,28.9
2018-12-30T08:56:56.311Z,28.9
2018-12-30T08:57:46.918Z,28.9
2018-12-30T08:58:36.823Z,28.9
2018-12-30T08:59:26.043Z,28.9
2018-12-30T09:00:16.325Z,28.9
2018-12-30T09:01:06.353Z,28.9
2018-12-30T09:16:54.692Z,27.5
2018-12-30T09:17:44.430Z,27.4
2018-12-30T09:18:34.715Z,27.3
2018-12-30T09:19:24.312Z,27.1
2018-12-30T09:20:14.000Z,27.1
2018-12-30T09:21:04.647Z,27.1
2018-12-30T09:21:55.219Z,27
2018-12-30T09:22:45.059Z,26.9
2018-12-30T09:23:42.384Z,26.9
2018-12-30T09:24:25.655Z,26.9
2018-12-30T09:25:14.892Z,26.8
2018-12-30T09:26:05.215Z,26.8
2018-12-30T09:26:55.344Z,26.8
2018-12-30T09:27:45.402Z,26.8
2018-12-30T09:28:34.284Z,26.8
2018-12-30T09:29:25.419Z,26.7
2018-12-30T09:30:15.219Z,26.7
2018-12-30T09:31:05.021Z,26.7
2018-12-30T09:31:55.339Z,26.6
2018-12-30T09:32:45.975Z,26.6
2018-12-30T09:33:35.454Z,26.6
2018-12-30T09:34:25.841Z,26.6
2018-12-30T09:35:15.559Z,26.6
2018-12-30T09:36:05.085Z,26.6
2018-12-30T09:36:57.555Z,26.6
2018-12-30T09:37:45.686Z,26.6
2018-12-30T09:38:36.366Z,26.6
2018-12-30T09:39:25.564Z,26.6
2018-12-30T09:40:15.931Z,26.6
2018-12-30T09:41:06.339Z,26.6
2018-12-30T09:41:56.301Z,26.6
2018-12-30T09:42:46.573Z,26.6
2018-12-30T09:43:36.426Z,26.6
2018-12-30T09:44:26.466Z,26.6
2018-12-30T09:45:15.715Z,26.6
2018-12-30T09:46:05.516Z,26.6
2018-12-30T09:46:55.801Z,26.6
2018-12-30T09:47:46.936Z,26.6
2018-12-30T09:48:38.726Z,26.6
2018-12-30T09:49:26.815Z,26.6
2018-12-30T09:50:16.600Z,26.6
2018-12-30T09:51:06.701Z,26.6
2018-12-30T09:51:56.150Z,26.6
2018-12-30T09:52:46.760Z,26.6
2018-12-30T09:53:36.546Z,26.6
2018-12-30T09:54:26.624Z,26.6
2018-12-30T09:55:17.488Z,26.6
2018-12-30T09:56:06.964Z,26.6
2018-12-30T09:56:56.742Z,26.6
2018-12-30T09:57:47.875Z,26.6
2018-12-30T09:58:36.928Z,26.6
2018-12-30T09:59:27.595Z,26.6
2018-12-30T10:00:17.528Z,26.6
2018-12-30T10:01:07.052Z,26.6
2018-12-30T10:01:56.290Z,26.6
2018-12-30T10:02:47.729Z,26.6
2018-12-30T10:03:37.335Z,26.6
2018-12-30T10:04:27.291Z,26.6
2018-12-30T10:05:17.884Z,26.6
2018-12-30T10:06:07.402Z,26.6
2018-12-30T10:06:57.439Z,26.6
2018-12-30T10:07:48.027Z,26.5
2018-12-30T10:08:38.432Z,26.4
2018-12-30T10:09:27.442Z,26.4
2018-12-30T10:10:17.427Z,26.3
2018-12-30T10:11:08.007Z,26.3
2018-12-30T10:11:57.330Z,26.2
2018-12-30T10:12:48.099Z,26.1
2018-12-30T10:13:37.904Z,26.1
2018-12-30T10:14:28.779Z,26.1
2018-12-30T10:15:17.476Z,25.9
2018-12-30T10:16:08.369Z,25.9
2018-12-30T10:16:58.507Z,25.9
2018-12-30T10:17:48.469Z,25.8
2018-12-30T10:18:38.287Z,25.8
2018-12-30T10:19:28.014Z,25.8
2018-12-30T10:20:17.979Z,25.8
2018-12-30T10:21:09.306Z,25.7
2018-12-30T10:21:58.473Z,25.7
2018-12-30T10:22:48.639Z,25.7
2018-12-30T10:23:39.166Z,25.7
2018-12-30T10:24:28.444Z,25.7
2018-12-30T10:25:18.462Z,25.6
2018-12-30T10:26:08.776Z,25.6
2018-12-30T10:26:59.108Z,25.6
2018-12-30T10:27:49.993Z,25.6
2018-12-30T10:28:39.733Z,25.6
2018-12-30T10:29:29.763Z,25.6
2018-12-30T10:30:19.593Z,25.6
2018-12-30T10:31:09.386Z,25.6
2018-12-30T10:31:59.440Z,25.6
2018-12-30T10:32:49.586Z,25.6
2018-12-30T10:33:40.116Z,25.6
2018-12-30T10:34:30.250Z,25.6
2018-12-30T10:35:19.944Z,25.6
2018-12-30T10:36:09.165Z,25.6
2018-12-30T10:36:59.793Z,25.6
2018-12-30T10:37:50.390Z,25.6
2018-12-30T10:38:40.198Z,25.6
2018-12-30T10:39:30.238Z,25.6
2018-12-30T10:40:20.580Z,25.6
2018-12-30T10:41:09.824Z,25.6
2018-12-30T10:42:01.985Z,25.6
2018-12-30T10:42:50.726Z,25.6
2018-12-30T10:43:40.317Z,25.6
2018-12-30T10:44:30.295Z,25.6
2018-12-30T10:45:20.365Z,25.6
2018-12-30T10:46:10.727Z,25.6
2018-12-30T10:47:01.000Z,25.6
2018-12-30T10:47:50.527Z,25.6
2018-12-30T10:48:40.829Z,25.6
2018-12-30T10:49:30.624Z,25.6
2018-12-30T10:50:21.007Z,25.6
2018-12-30T10:51:10.807Z,25.6
2018-12-30T10:52:00.777Z,25.6
2018-12-30T10:52:50.574Z,25.7
2018-12-30T10:53:41.007Z,25.6
2018-12-30T10:54:30.714Z,25.6
2018-12-30T10:55:21.559Z,25.7
2018-12-30T10:56:11.370Z,25.7
2018-12-30T10:57:01.476Z,25.6
2018-12-30T10:57:50.699Z,25.6
2018-12-30T10:58:41.283Z,25.7
2018-12-30T10:59:31.599Z,25.7
2018-12-30T11:00:21.438Z,25.7
2018-12-30T11:01:11.417Z,25.7
2018-12-30T11:02:01.223Z,25.7
2018-12-30T11:02:51.826Z,25.7
2018-12-30T11:03:41.329Z,25.7
2018-12-30T11:04:31.938Z,25.7
2018-12-30T11:05:21.474Z,25.7
2018-12-30T11:06:11.243Z,25.7
2018-12-30T11:07:01.853Z,25.7
2018-12-30T11:07:51.611Z,25.7
2018-12-30T11:08:42.043Z,25.7
2018-12-30T11:09:32.044Z,25.8
2018-12-30T11:10:22.061Z,25.7
2018-12-30T11:11:12.401Z,25.8
2018-12-30T11:12:02.473Z,25.8
2018-12-30T11:12:52.236Z,25.8
2018-12-30T11:13:42.838Z,25.8
2018-12-30T11:14:32.345Z,25.8
2018-12-30T11:15:22.385Z,25.8
2018-12-30T11:16:12.436Z,25.8
2018-12-30T11:17:02.788Z,25.8
2018-12-30T11:17:52.312Z,25.8
2018-12-30T11:18:44.141Z,25.8
2018-12-30T11:19:32.213Z,25.8
2018-12-30T11:20:23.370Z,25.8
2018-12-30T11:21:13.373Z,25.8
2018-12-30T11:22:02.865Z,25.8
2018-12-30T11:22:53.558Z,25.8
2018-12-30T11:23:43.518Z,25.8
2018-12-30T11:24:35.305Z,25.8
2018-12-30T11:25:23.390Z,25.8
2018-12-30T11:26:13.211Z,25.8
2018-12-30T11:27:03.765Z,25.8
2018-12-30T11:27:53.523Z,25.8
2018-12-30T11:28:43.324Z,25.8
2018-12-30T11:29:33.882Z,25.8
2018-12-30T11:30:23.527Z,25.8
2018-12-30T11:31:14.895Z,25.8
2018-12-30T11:32:03.299Z,25.8
2018-12-30T11:32:52.737Z,25.8
2018-12-30T11:33:43.124Z,25.8
2018-12-30T11:34:33.676Z,25.8
2018-12-30T11:35:24.556Z,25.8
2018-12-30T11:36:13.819Z,25.8
2018-12-30T11:37:04.191Z,25.8
2018-12-30T11:37:54.171Z,25.8
2018-12-30T11:38:43.716Z,25.9
2018-12-30T11:39:33.286Z,25.9
2018-12-30T11:40:24.083Z,25.9
2018-12-30T11:41:13.598Z,25.9
2018-12-30T11:42:03.423Z,25.9
2018-12-30T11:42:54.814Z,25.9
2018-12-30T11:43:44.318Z,25.9
2018-12-30T11:44:34.651Z,25.9
2018-12-30T11:45:24.164Z,25.9
2018-12-30T11:46:15.306Z,25.9
2018-12-30T11:47:06.516Z,25.9
2018-12-30T11:47:54.673Z,25.9
2018-12-30T11:48:45.473Z,25.9
2018-12-30T11:49:34.470Z,25.9
2018-12-30T11:50:23.938Z,25.9
2018-12-30T11:51:14.582Z,25.9
2018-12-30T11:52:04.908Z,25.9
2018-12-30T11:52:54.697Z,25.9
2018-12-30T11:53:45.040Z,25.9
2018-12-30T11:54:35.057Z,25.9
2018-12-30T11:55:25.118Z,25.9
2018-12-30T11:56:14.898Z,25.9